Pacific - South Coast: Past 24 Hour Conditions

 

Bella Bella Airport

04:00 AM PDT 24 October 2014
This table is a summary of hourly weather conditions for the past 24 hours.
Date / Time
(PDT)
Wind(knots) Conditions Visibility(km) Pressure(kPa) Air tempC) Relative humidity(%) Dew pointC)
24 October 2014
4:00 SE 4 Cloudy 16 101.4 8 92 6
3:00 ESE 6 Mostly Cloudy 16 101.4 7 92 6
2:00 SE 3 Cloudy 16 101.4 7 94 6
1:00 SE 3 Cloudy 16 101.4 8 94 7
0:00 ESE 3 Cloudy 16 101.3 8 93 7
23 October 2014
23:00 SE 3 Light Rain 16 101.2 8 95 7
22:00 NE 4 Rain 6 101.2 8 96 7
21:00 SE 10 gust 15 Rain 10 101.1 8 93 7
20:00 SE 6 Light Rain 16 101.0 8 90 7
19:00 SSE 6 Mostly Cloudy 16 100.9 8 89 7
18:00 SE 3 Mostly Cloudy 16 100.9 9 95 8
17:00 E 3 Light Rain 8 100.8 9 96 8
16:00 ESE 3 Cloudy 16 100.8 9 92 8
15:00 WSW 3 Light Rain 15 100.7 8 94 7
14:00 ESE 3 Mostly Cloudy 16 100.7 8 93 7
13:00 NE 3 Rain 10 100.7 8 95 7
12:00 ESE 2 Light Rain 16 100.6 8 93 7
11:00 SE 8 Light Rain 16 100.6 8 93 7
10:00 NE 2 Cloudy 16 100.5 8 93 7
9:00 ESE 4 Light Rain 11 100.5 7 92 6
8:00 SE 5 Cloudy 16 100.4 7 93 6
7:00 SE 5 Mostly Cloudy 16 100.3 7 91 6
6:00 SE 5 Mostly Cloudy 16 100.3 7 93 6
5:00 SE 6 Light Rain 16 100.2 8 89 6
4:00 SSE 5 Light Rain 16 100.2 7 91 6
 
Map of Pacific - South Coast marine weather areas Tsawwassen Ferry Terminal South Nomad - 46036 Sentry Shoal - 46131 South Brooks - 46132 Halibut Bank - 46146 South Moresby - 46147 South Hecate Strait - 46185 West Sea Otter - 46204 La Perouse Bank - 46206 East Dellwood - 46207 Discovery Island Esquimalt Harbour Kelp Reefs Malahat Race Rocks Lightstation Saturna Island Sheringham Point University of Victoria Victoria Gonzales Victoria Int'l Airport Ballenas Islands Campbell River Airport Comox Airport Entrance Island Fanny Island Nanaimo Airport Port Hardy Airport Sisters Islets Estevan Point Sartine Island Solander Island Tofino Airport Grief Point Powell River Airport Sechelt Cape St.James Bella Bella Airport Bella Coola Airport Cathedral Point Herbert Island Point Atkinson Sand Heads Lightstation Vancouver Harbour Vancouver Int'l Airport West Vancouver Port Alberni Howe Sound - Pam Rocks Squamish Airport